sensor_id;sensor_type;location;lat;lon;timestamp;temperature;humidity
43808;DHT22;29438;50.664;10.098;2023-08-31T00:01:08;11.80;92.60
43808;DHT22;29438;50.664;10.098;2023-08-31T00:03:35;11.80;92.70
43808;DHT22;29438;50.664;10.098;2023-08-31T00:06:04;11.80;92.80
43808;DHT22;29438;50.664;10.098;2023-08-31T00:08:30;11.90;92.70
43808;DHT22;29438;50.664;10.098;2023-08-31T00:10:59;11.80;92.70
43808;DHT22;29438;50.664;10.098;2023-08-31T00:13:26;11.90;92.80
43808;DHT22;29438;50.664;10.098;2023-08-31T00:15:55;11.90;92.90
43808;DHT22;29438;50.664;10.098;2023-08-31T00:18:21;11.90;92.80
43808;DHT22;29438;50.664;10.098;2023-08-31T00:20:47;12.00;92.80
43808;DHT22;29438;50.664;10.098;2023-08-31T00:23:13;12.00;92.80
43808;DHT22;29438;50.664;10.098;2023-08-31T00:25:38;11.90;92.80
43808;DHT22;29438;50.664;10.098;2023-08-31T00:28:04;12.00;92.80
43808;DHT22;29438;50.664;10.098;2023-08-31T00:30:33;12.00;92.70
43808;DHT22;29438;50.664;10.098;2023-08-31T00:32:58;12.00;92.70
43808;DHT22;29438;50.664;10.098;2023-08-31T00:35:27;11.90;92.60
43808;DHT22;29438;50.664;10.098;2023-08-31T00:37:53;11.90;92.70
43808;DHT22;29438;50.664;10.098;2023-08-31T00:40:23;12.00;92.70
43808;DHT22;29438;50.664;10.098;2023-08-31T00:42:49;12.00;92.70
43808;DHT22;29438;50.664;10.098;2023-08-31T00:45:14;12.00;92.70
43808;DHT22;29438;50.664;10.098;2023-08-31T00:47:41;11.90;92.20
43808;DHT22;29438;50.664;10.098;2023-08-31T00:50:07;11.90;92.10
43808;DHT22;29438;50.664;10.098;2023-08-31T00:52:33;11.90;92.00
43808;DHT22;29438;50.664;10.098;2023-08-31T00:55:00;12.00;92.20
43808;DHT22;29438;50.664;10.098;2023-08-31T00:57:28;12.00;92.30
43808;DHT22;29438;50.664;10.098;2023-08-31T00:59:53;12.00;92.40
43808;DHT22;29438;50.664;10.098;2023-08-31T01:05:18;12.00;92.20
43808;DHT22;29438;50.664;10.098;2023-08-31T01:07:53;12.00;92.10
43808;DHT22;29438;50.664;10.098;2023-08-31T01:10:23;12.00;91.90
43808;DHT22;29438;50.664;10.098;2023-08-31T01:12:54;12.00;92.00
43808;DHT22;29438;50.664;10.098;2023-08-31T01:15:23;11.90;92.10
43808;DHT22;29438;50.664;10.098;2023-08-31T01:17:54;12.00;92.30
43808;DHT22;29438;50.664;10.098;2023-08-31T01:23:11;11.90;92.00
43808;DHT22;29438;50.664;10.098;2023-08-31T01:25:38;11.90;91.80
43808;DHT22;29438;50.664;10.098;2023-08-31T01:28:06;11.90;91.80
43808;DHT22;29438;50.664;10.098;2023-08-31T01:30:32;11.90;91.80
43808;DHT22;29438;50.664;10.098;2023-08-31T01:32:58;11.80;91.90
43808;DHT22;29438;50.664;10.098;2023-08-31T01:35:24;11.80;91.90
43808;DHT22;29438;50.664;10.098;2023-08-31T01:37:57;11.70;92.10
43808;DHT22;29438;50.664;10.098;2023-08-31T01:40:32;11.70;92.20
43808;DHT22;29438;50.664;10.098;2023-08-31T01:43:01;11.70;92.40
43808;DHT22;29438;50.664;10.098;2023-08-31T01:45:28;11.70;92.50
43808;DHT22;29438;50.664;10.098;2023-08-31T01:47:53;11.60;92.60
43808;DHT22;29438;50.664;10.098;2023-08-31T01:50:21;11.60;92.60
43808;DHT22;29438;50.664;10.098;2023-08-31T01:52:47;11.50;92.70
43808;DHT22;29438;50.664;10.098;2023-08-31T01:55:12;11.50;92.80
43808;DHT22;29438;50.664;10.098;2023-08-31T01:57:41;11.50;92.80
43808;DHT22;29438;50.664;10.098;2023-08-31T02:00:08;11.50;92.70
43808;DHT22;29438;50.664;10.098;2023-08-31T02:02:35;11.50;92.70
43808;DHT22;29438;50.664;10.098;2023-08-31T02:05:01;11.50;92.60
43808;DHT22;29438;50.664;10.098;2023-08-31T02:07:27;11.40;92.60
43808;DHT22;29438;50.664;10.098;2023-08-31T02:09:53;11.30;92.60
43808;DHT22;29438;50.664;10.098;2023-08-31T02:12:19;11.40;92.80
43808;DHT22;29438;50.664;10.098;2023-08-31T02:14:44;11.30;92.70
43808;DHT22;29438;50.664;10.098;2023-08-31T02:17:10;11.30;92.70
43808;DHT22;29438;50.664;10.098;2023-08-31T02:19:35;11.20;92.90
43808;DHT22;29438;50.664;10.098;2023-08-31T02:22:01;11.30;93.10
43808;DHT22;29438;50.664;10.098;2023-08-31T02:24:26;11.40;93.20
43808;DHT22;29438;50.664;10.098;2023-08-31T02:26:52;11.30;93.10
43808;DHT22;29438;50.664;10.098;2023-08-31T02:29:17;11.40;93.10
43808;DHT22;29438;50.664;10.098;2023-08-31T02:31:43;11.40;93.00
43808;DHT22;29438;50.664;10.098;2023-08-31T02:34:10;11.40;92.90
43808;DHT22;29438;50.664;10.098;2023-08-31T02:36:36;11.30;92.80
43808;DHT22;29438;50.664;10.098;2023-08-31T02:39:02;11.30;92.70
43808;DHT22;29438;50.664;10.098;2023-08-31T02:41:29;11.20;92.60
43808;DHT22;29438;50.664;10.098;2023-08-31T02:43:54;11.30;92.60
43808;DHT22;29438;50.664;10.098;2023-08-31T02:46:20;11.30;92.60
43808;DHT22;29438;50.664;10.098;2023-08-31T02:48:46;11.20;92.50
43808;DHT22;29438;50.664;10.098;2023-08-31T02:51:11;11.20;92.40
43808;DHT22;29438;50.664;10.098;2023-08-31T02:53:37;11.10;92.40
43808;DHT22;29438;50.664;10.098;2023-08-31T02:56:02;11.00;92.60
43808;DHT22;29438;50.664;10.098;2023-08-31T02:58:28;11.00;92.80
43808;DHT22;29438;50.664;10.098;2023-08-31T03:00:54;11.10;93.00
43808;DHT22;29438;50.664;10.098;2023-08-31T03:03:21;11.10;93.00
43808;DHT22;29438;50.664;10.098;2023-08-31T03:05:47;11.20;93.00
43808;DHT22;29438;50.664;10.098;2023-08-31T03:08:13;11.20;92.90
43808;DHT22;29438;50.664;10.098;2023-08-31T03:10:38;11.20;92.90
43808;DHT22;29438;50.664;10.098;2023-08-31T03:13:04;11.10;92.90
43808;DHT22;29438;50.664;10.098;2023-08-31T03:15:32;11.10;92.80
43808;DHT22;29438;50.664;10.098;2023-08-31T03:17:59;11.10;92.70
43808;DHT22;29438;50.664;10.098;2023-08-31T03:20:24;11.00;92.70
43808;DHT22;29438;50.664;10.098;2023-08-31T03:22:50;10.90;92.70
43808;DHT22;29438;50.664;10.098;2023-08-31T03:25:15;10.90;92.90
43808;DHT22;29438;50.664;10.098;2023-08-31T03:27:41;10.80;93.00
43808;DHT22;29438;50.664;10.098;2023-08-31T03:30:07;10.80;93.10
43808;DHT22;29438;50.664;10.098;2023-08-31T03:32:33;10.80;93.10
43808;DHT22;29438;50.664;10.098;2023-08-31T03:34:58;10.80;93.10
43808;DHT22;29438;50.664;10.098;2023-08-31T03:37:24;10.80;93.20
43808;DHT22;29438;50.664;10.098;2023-08-31T03:39:50;10.70;93.30
43808;DHT22;29438;50.664;10.098;2023-08-31T03:42:15;10.60;93.30
43808;DHT22;29438;50.664;10.098;2023-08-31T03:44:41;10.60;93.30
43808;DHT22;29438;50.664;10.098;2023-08-31T03:47:07;10.60;93.40
43808;DHT22;29438;50.664;10.098;2023-08-31T03:49:32;10.50;93.50
43808;DHT22;29438;50.664;10.098;2023-08-31T03:51:59;10.50;93.50
43808;DHT22;29438;50.664;10.098;2023-08-31T03:54:24;10.50;93.50
43808;DHT22;29438;50.664;10.098;2023-08-31T03:56:50;10.40;93.60
43808;DHT22;29438;50.664;10.098;2023-08-31T03:59:16;10.30;93.60
43808;DHT22;29438;50.664;10.098;2023-08-31T04:01:41;10.40;93.60
43808;DHT22;29438;50.664;10.098;2023-08-31T04:04:07;10.30;93.60
43808;DHT22;29438;50.664;10.098;2023-08-31T04:06:33;10.30;93.60
43808;DHT22;29438;50.664;10.098;2023-08-31T04:08:59;10.30;93.80
43808;DHT22;29438;50.664;10.098;2023-08-31T04:11:25;10.40;94.00
43808;DHT22;29438;50.664;10.098;2023-08-31T04:13:51;10.50;94.00
43808;DHT22;29438;50.664;10.098;2023-08-31T04:16:16;10.50;94.00
43808;DHT22;29438;50.664;10.098;2023-08-31T04:18:42;10.50;94.00
43808;DHT22;29438;50.664;10.098;2023-08-31T04:21:08;10.50;93.80
43808;DHT22;29438;50.664;10.098;2023-08-31T04:23:34;10.40;93.70
43808;DHT22;29438;50.664;10.098;2023-08-31T04:26:00;10.30;93.80
43808;DHT22;29438;50.664;10.098;2023-08-31T04:28:25;10.30;93.80
43808;DHT22;29438;50.664;10.098;2023-08-31T04:30:51;10.30;93.70
43808;DHT22;29438;50.664;10.098;2023-08-31T04:33:17;10.30;93.70
43808;DHT22;29438;50.664;10.098;2023-08-31T04:35:43;10.20;93.70
43808;DHT22;29438;50.664;10.098;2023-08-31T04:38:09;10.20;93.90
43808;DHT22;29438;50.664;10.098;2023-08-31T04:40:35;10.20;94.00
43808;DHT22;29438;50.664;10.098;2023-08-31T04:43:02;10.20;94.00
43808;DHT22;29438;50.664;10.098;2023-08-31T04:45:28;10.30;94.10
43808;DHT22;29438;50.664;10.098;2023-08-31T04:47:53;10.30;94.00
43808;DHT22;29438;50.664;10.098;2023-08-31T04:50:19;10.20;94.00
43808;DHT22;29438;50.664;10.098;2023-08-31T04:52:45;10.30;94.00
43808;DHT22;29438;50.664;10.098;2023-08-31T04:55:12;10.30;94.00
43808;DHT22;29438;50.664;10.098;2023-08-31T04:57:38;10.40;94.10
43808;DHT22;29438;50.664;10.098;2023-08-31T05:00:05;10.70;94.20
43808;DHT22;29438;50.664;10.098;2023-08-31T05:02:30;11.00;94.30
43808;DHT22;29438;50.664;10.098;2023-08-31T05:04:56;11.50;93.90
43808;DHT22;29438;50.664;10.098;2023-08-31T05:07:21;11.60;92.90
43808;DHT22;29438;50.664;10.098;2023-08-31T05:09:47;11.50;91.70
43808;DHT22;29438;50.664;10.098;2023-08-31T05:12:12;11.50;91.80
43808;DHT22;29438;50.664;10.098;2023-08-31T05:14:38;11.50;91.50
43808;DHT22;29438;50.664;10.098;2023-08-31T05:17:05;11.40;91.40
43808;DHT22;29438;50.664;10.098;2023-08-31T05:19:31;11.40;91.50
43808;DHT22;29438;50.664;10.098;2023-08-31T05:21:56;11.50;91.20
43808;DHT22;29438;50.664;10.098;2023-08-31T05:24:22;11.50;91.30
43808;DHT22;29438;50.664;10.098;2023-08-31T05:26:49;11.50;91.20
43808;DHT22;29438;50.664;10.098;2023-08-31T05:29:14;11.60;91.20
43808;DHT22;29438;50.664;10.098;2023-08-31T05:31:40;11.50;90.90
43808;DHT22;29438;50.664;10.098;2023-08-31T05:34:05;11.60;91.00
43808;DHT22;29438;50.664;10.098;2023-08-31T05:36:31;11.60;90.80
43808;DHT22;29438;50.664;10.098;2023-08-31T05:38:56;11.70;90.90
43808;DHT22;29438;50.664;10.098;2023-08-31T05:41:22;11.80;90.60
43808;DHT22;29438;50.664;10.098;2023-08-31T05:43:48;11.90;90.40
43808;DHT22;29438;50.664;10.098;2023-08-31T05:46:14;11.90;90.10
43808;DHT22;29438;50.664;10.098;2023-08-31T05:48:39;12.00;90.20
43808;DHT22;29438;50.664;10.098;2023-08-31T05:51:05;12.10;90.10
43808;DHT22;29438;50.664;10.098;2023-08-31T05:53:31;12.20;89.90
43808;DHT22;29438;50.664;10.098;2023-08-31T05:55:57;12.20;89.60
43808;DHT22;29438;50.664;10.098;2023-08-31T05:58:30;12.20;89.60
43808;DHT22;29438;50.664;10.098;2023-08-31T06:00:56;12.20;89.40
43808;DHT22;29438;50.664;10.098;2023-08-31T06:03:22;12.20;89.30
43808;DHT22;29438;50.664;10.098;2023-08-31T06:05:48;12.20;89.30
43808;DHT22;29438;50.664;10.098;2023-08-31T06:08:13;12.20;89.60
43808;DHT22;29438;50.664;10.098;2023-08-31T06:10:39;12.10;89.50
43808;DHT22;29438;50.664;10.098;2023-08-31T06:13:04;12.10;89.40
43808;DHT22;29438;50.664;10.098;2023-08-31T06:15:30;12.10;89.30
43808;DHT22;29438;50.664;10.098;2023-08-31T06:17:55;12.10;89.60
43808;DHT22;29438;50.664;10.098;2023-08-31T06:20:21;12.10;89.70
43808;DHT22;29438;50.664;10.098;2023-08-31T06:22:47;12.10;89.20
43808;DHT22;29438;50.664;10.098;2023-08-31T06:25:13;12.20;89.20
43808;DHT22;29438;50.664;10.098;2023-08-31T06:27:42;12.20;88.60
43808;DHT22;29438;50.664;10.098;2023-08-31T06:30:09;12.60;89.30
43808;DHT22;29438;50.664;10.098;2023-08-31T06:32:37;12.80;88.00
43808;DHT22;29438;50.664;10.098;2023-08-31T06:35:03;12.90;87.00
43808;DHT22;29438;50.664;10.098;2023-08-31T06:37:28;13.00;85.60
43808;DHT22;29438;50.664;10.098;2023-08-31T06:39:54;13.20;86.00
43808;DHT22;29438;50.664;10.098;2023-08-31T06:42:19;13.30;85.10
43808;DHT22;29438;50.664;10.098;2023-08-31T06:44:45;13.50;84.80
43808;DHT22;29438;50.664;10.098;2023-08-31T06:47:11;13.50;84.60
43808;DHT22;29438;50.664;10.098;2023-08-31T06:49:39;13.50;84.70
43808;DHT22;29438;50.664;10.098;2023-08-31T06:52:04;13.60;84.80
43808;DHT22;29438;50.664;10.098;2023-08-31T06:54:33;13.70;83.90
43808;DHT22;29438;50.664;10.098;2023-08-31T06:56:58;13.50;84.30
43808;DHT22;29438;50.664;10.098;2023-08-31T06:59:24;13.40;85.40
43808;DHT22;29438;50.664;10.098;2023-08-31T07:01:50;13.40;84.50
43808;DHT22;29438;50.664;10.098;2023-08-31T07:04:15;13.10;85.10
43808;DHT22;29438;50.664;10.098;2023-08-31T07:06:41;13.10;85.70
43808;DHT22;29438;50.664;10.098;2023-08-31T07:09:06;13.20;85.30
43808;DHT22;29438;50.664;10.098;2023-08-31T07:11:34;13.20;85.20
43808;DHT22;29438;50.664;10.098;2023-08-31T07:13:59;13.20;85.30
43808;DHT22;29438;50.664;10.098;2023-08-31T07:16:25;13.50;84.10
43808;DHT22;29438;50.664;10.098;2023-08-31T07:18:51;13.80;83.80
43808;DHT22;29438;50.664;10.098;2023-08-31T07:21:17;14.20;83.10
43808;DHT22;29438;50.664;10.098;2023-08-31T07:23:42;14.50;82.20
43808;DHT22;29438;50.664;10.098;2023-08-31T07:26:08;14.50;81.60
43808;DHT22;29438;50.664;10.098;2023-08-31T07:28:34;14.50;81.60
43808;DHT22;29438;50.664;10.098;2023-08-31T07:31:03;14.30;81.50
43808;DHT22;29438;50.664;10.098;2023-08-31T07:33:29;14.20;81.90
43808;DHT22;29438;50.664;10.098;2023-08-31T07:35:56;14.20;81.30
43808;DHT22;29438;50.664;10.098;2023-08-31T07:38:22;14.30;80.50
43808;DHT22;29438;50.664;10.098;2023-08-31T07:40:47;14.40;80.50
43808;DHT22;29438;50.664;10.098;2023-08-31T07:43:14;14.00;80.40
43808;DHT22;29438;50.664;10.098;2023-08-31T07:45:39;13.80;82.30
43808;DHT22;29438;50.664;10.098;2023-08-31T07:48:05;13.70;82.40
43808;DHT22;29438;50.664;10.098;2023-08-31T07:50:32;13.90;81.60
43808;DHT22;29438;50.664;10.098;2023-08-31T07:52:58;14.30;81.50
43808;DHT22;29438;50.664;10.098;2023-08-31T07:55:23;15.60;77.70
43808;DHT22;29438;50.664;10.098;2023-08-31T07:57:49;16.50;75.50
43808;DHT22;29438;50.664;10.098;2023-08-31T08:00:15;16.70;73.70
43808;DHT22;29438;50.664;10.098;2023-08-31T08:02:40;17.10;72.70
43808;DHT22;29438;50.664;10.098;2023-08-31T08:05:06;17.20;69.90
43808;DHT22;29438;50.664;10.098;2023-08-31T08:07:32;17.10;70.10
43808;DHT22;29438;50.664;10.098;2023-08-31T08:09:57;16.40;71.30
43808;DHT22;29438;50.664;10.098;2023-08-31T08:12:25;15.90;71.60
43808;DHT22;29438;50.664;10.098;2023-08-31T08:14:51;16.30;72.30
43808;DHT22;29438;50.664;10.098;2023-08-31T08:17:16;16.80;70.50
43808;DHT22;29438;50.664;10.098;2023-08-31T08:19:42;17.00;70.60
43808;DHT22;29438;50.664;10.098;2023-08-31T08:22:07;19.20;67.50
43808;DHT22;29438;50.664;10.098;2023-08-31T08:24:33;21.10;58.60
43808;DHT22;29438;50.664;10.098;2023-08-31T08:26:58;23.40;52.50
43808;DHT22;29438;50.664;10.098;2023-08-31T08:29:24;23.50;53.00
43808;DHT22;29438;50.664;10.098;2023-08-31T08:31:51;24.70;51.00
43808;DHT22;29438;50.664;10.098;2023-08-31T08:34:16;24.50;48.20
43808;DHT22;29438;50.664;10.098;2023-08-31T08:36:42;24.20;49.00
43808;DHT22;29438;50.664;10.098;2023-08-31T08:39:07;24.30;48.10
43808;DHT22;29438;50.664;10.098;2023-08-31T08:41:34;23.20;51.00
43808;DHT22;29438;50.664;10.098;2023-08-31T08:44:02;22.90;52.20
43808;DHT22;29438;50.664;10.098;2023-08-31T08:46:31;23.70;50.50
43808;DHT22;29438;50.664;10.098;2023-08-31T08:48:59;23.40;51.20
43808;DHT22;29438;50.664;10.098;2023-08-31T08:51:27;23.50;49.30
43808;DHT22;29438;50.664;10.098;2023-08-31T08:53:53;24.00;48.50
43808;DHT22;29438;50.664;10.098;2023-08-31T08:56:19;22.70;50.10
43808;DHT22;29438;50.664;10.098;2023-08-31T08:58:45;20.30;55.00
43808;DHT22;29438;50.664;10.098;2023-08-31T09:01:10;19.60;59.60
43808;DHT22;29438;50.664;10.098;2023-08-31T09:03:36;19.60;60.10
43808;DHT22;29438;50.664;10.098;2023-08-31T09:06:02;20.90;59.00
43808;DHT22;29438;50.664;10.098;2023-08-31T09:08:29;22.20;53.40
43808;DHT22;29438;50.664;10.098;2023-08-31T09:10:56;22.60;52.60
43808;DHT22;29438;50.664;10.098;2023-08-31T09:13:29;22.10;53.80
43808;DHT22;29438;50.664;10.098;2023-08-31T09:15:55;21.70;52.90
43808;DHT22;29438;50.664;10.098;2023-08-31T09:18:29;21.30;55.50
43808;DHT22;29438;50.664;10.098;2023-08-31T09:20:56;20.80;56.40
43808;DHT22;29438;50.664;10.098;2023-08-31T09:23:22;21.10;57.50
43808;DHT22;29438;50.664;10.098;2023-08-31T09:25:53;21.40;56.20
43808;DHT22;29438;50.664;10.098;2023-08-31T09:28:20;20.00;58.80
43808;DHT22;29438;50.664;10.098;2023-08-31T09:30:47;18.90;59.10
43808;DHT22;29438;50.664;10.098;2023-08-31T09:33:15;18.30;61.50
43808;DHT22;29438;50.664;10.098;2023-08-31T09:35:52;18.00;62.50
43808;DHT22;29438;50.664;10.098;2023-08-31T09:38:18;17.90;63.50
43808;DHT22;29438;50.664;10.098;2023-08-31T09:40:45;17.90;63.60
43808;DHT22;29438;50.664;10.098;2023-08-31T09:43:10;17.90;63.70
43808;DHT22;29438;50.664;10.098;2023-08-31T09:45:37;17.40;63.60
43808;DHT22;29438;50.664;10.098;2023-08-31T09:48:04;17.40;66.10
43808;DHT22;29438;50.664;10.098;2023-08-31T09:50:33;18.30;63.60
43808;DHT22;29438;50.664;10.098;2023-08-31T09:53:04;19.00;64.00
43808;DHT22;29438;50.664;10.098;2023-08-31T09:55:31;18.70;61.90
43808;DHT22;29438;50.664;10.098;2023-08-31T09:57:59;19.30;61.80
43808;DHT22;29438;50.664;10.098;2023-08-31T10:00:29;20.80;59.50
43808;DHT22;29438;50.664;10.098;2023-08-31T10:03:02;21.90;57.50
43808;DHT22;29438;50.664;10.098;2023-08-31T10:05:28;22.50;53.10
43808;DHT22;29438;50.664;10.098;2023-08-31T10:07:54;22.20;51.80
43808;DHT22;29438;50.664;10.098;2023-08-31T10:10:21;20.70;56.50
43808;DHT22;29438;50.664;10.098;2023-08-31T10:12:50;20.50;54.60
43808;DHT22;29438;50.664;10.098;2023-08-31T10:15:18;21.30;54.60
43808;DHT22;29438;50.664;10.098;2023-08-31T10:17:44;21.20;53.40
43808;DHT22;29438;50.664;10.098;2023-08-31T10:20:16;20.90;52.90
43808;DHT22;29438;50.664;10.098;2023-08-31T10:22:42;20.00;56.60
43808;DHT22;29438;50.664;10.098;2023-08-31T10:25:08;20.90;56.10
43808;DHT22;29438;50.664;10.098;2023-08-31T10:27:42;20.50;55.00
43808;DHT22;29438;50.664;10.098;2023-08-31T10:30:33;20.20;54.00
43808;DHT22;29438;50.664;10.098;2023-08-31T10:33:19;20.90;54.50
43808;DHT22;29438;50.664;10.098;2023-08-31T10:35:51;21.20;52.00
43808;DHT22;29438;50.664;10.098;2023-08-31T10:38:24;19.50;55.50
43808;DHT22;29438;50.664;10.098;2023-08-31T10:46:31;19.10;56.00
43808;DHT22;29438;50.664;10.098;2023-08-31T10:49:13;18.00;59.40
43808;DHT22;29438;50.664;10.098;2023-08-31T10:51:53;17.50;62.00
43808;DHT22;29438;50.664;10.098;2023-08-31T10:54:24;17.30;63.60
43808;DHT22;29438;50.664;10.098;2023-08-31T10:59:51;19.00;63.10
43808;DHT22;29438;50.664;10.098;2023-08-31T11:02:38;20.30;59.80
43808;DHT22;29438;50.664;10.098;2023-08-31T11:05:08;21.40;56.30
43808;DHT22;29438;50.664;10.098;2023-08-31T11:07:35;21.50;56.90
43808;DHT22;29438;50.664;10.098;2023-08-31T11:10:08;21.30;53.50
43808;DHT22;29438;50.664;10.098;2023-08-31T11:12:34;19.90;58.70
43808;DHT22;29438;50.664;10.098;2023-08-31T11:15:00;18.60;62.40
43808;DHT22;29438;50.664;10.098;2023-08-31T11:17:26;17.80;64.70
43808;DHT22;29438;50.664;10.098;2023-08-31T11:19:52;18.60;64.00
43808;DHT22;29438;50.664;10.098;2023-08-31T11:22:18;19.30;63.70
43808;DHT22;29438;50.664;10.098;2023-08-31T11:24:44;19.90;58.90
43808;DHT22;29438;50.664;10.098;2023-08-31T11:27:09;20.70;58.70
43808;DHT22;29438;50.664;10.098;2023-08-31T11:29:45;20.60;57.80
43808;DHT22;29438;50.664;10.098;2023-08-31T11:32:10;20.60;59.00
43808;DHT22;29438;50.664;10.098;2023-08-31T11:34:41;20.50;56.60
43808;DHT22;29438;50.664;10.098;2023-08-31T11:37:07;20.50;56.80
43808;DHT22;29438;50.664;10.098;2023-08-31T11:39:33;20.20;60.00
43808;DHT22;29438;50.664;10.098;2023-08-31T11:41:59;21.00;56.60
43808;DHT22;29438;50.664;10.098;2023-08-31T11:44:25;21.10;57.70
43808;DHT22;29438;50.664;10.098;2023-08-31T11:46:51;21.30;56.80
43808;DHT22;29438;50.664;10.098;2023-08-31T11:49:21;21.10;55.90
43808;DHT22;29438;50.664;10.098;2023-08-31T11:51:48;20.20;57.90
43808;DHT22;29438;50.664;10.098;2023-08-31T11:54:16;19.70;60.10
43808;DHT22;29438;50.664;10.098;2023-08-31T11:56:46;19.60;58.90
43808;DHT22;29438;50.664;10.098;2023-08-31T11:59:18;19.30;62.50
43808;DHT22;29438;50.664;10.098;2023-08-31T12:01:46;18.30;62.90
43808;DHT22;29438;50.664;10.098;2023-08-31T12:04:14;18.30;63.90
43808;DHT22;29438;50.664;10.098;2023-08-31T12:06:40;18.50;64.90
43808;DHT22;29438;50.664;10.098;2023-08-31T12:09:08;19.30;63.70
43808;DHT22;29438;50.664;10.098;2023-08-31T12:11:33;19.90;62.10
43808;DHT22;29438;50.664;10.098;2023-08-31T12:14:00;19.80;61.50
43808;DHT22;29438;50.664;10.098;2023-08-31T12:16:35;20.10;61.60
43808;DHT22;29438;50.664;10.098;2023-08-31T12:19:04;20.10;60.20
43808;DHT22;29438;50.664;10.098;2023-08-31T12:21:33;19.90;61.40
43808;DHT22;29438;50.664;10.098;2023-08-31T12:23:59;19.60;60.50
43808;DHT22;29438;50.664;10.098;2023-08-31T12:26:25;19.80;59.50
43808;DHT22;29438;50.664;10.098;2023-08-31T12:28:51;20.30;61.00
43808;DHT22;29438;50.664;10.098;2023-08-31T12:31:17;20.40;60.40
43808;DHT22;29438;50.664;10.098;2023-08-31T12:33:42;20.20;56.50
43808;DHT22;29438;50.664;10.098;2023-08-31T12:36:08;19.50;60.30
43808;DHT22;29438;50.664;10.098;2023-08-31T12:38:34;18.70;60.00
43808;DHT22;29438;50.664;10.098;2023-08-31T12:40:59;18.20;65.10
43808;DHT22;29438;50.664;10.098;2023-08-31T12:43:27;18.40;65.40
43808;DHT22;29438;50.664;10.098;2023-08-31T12:45:54;18.30;64.50
43808;DHT22;29438;50.664;10.098;2023-08-31T12:48:19;17.60;65.70
43808;DHT22;29438;50.664;10.098;2023-08-31T12:50:45;18.10;66.70
43808;DHT22;29438;50.664;10.098;2023-08-31T12:53:11;19.00;64.30
43808;DHT22;29438;50.664;10.098;2023-08-31T12:55:36;19.80;60.90
43808;DHT22;29438;50.664;10.098;2023-08-31T12:58:02;20.00;58.60
43808;DHT22;29438;50.664;10.098;2023-08-31T13:00:27;19.90;62.60
43808;DHT22;29438;50.664;10.098;2023-08-31T13:02:53;19.40;60.30
43808;DHT22;29438;50.664;10.098;2023-08-31T13:05:20;18.80;63.40
43808;DHT22;29438;50.664;10.098;2023-08-31T13:07:46;19.00;63.70
43808;DHT22;29438;50.664;10.098;2023-08-31T13:10:11;19.30;63.40
43808;DHT22;29438;50.664;10.098;2023-08-31T13:12:37;19.30;60.20
43808;DHT22;29438;50.664;10.098;2023-08-31T13:15:03;19.80;60.70
43808;DHT22;29438;50.664;10.098;2023-08-31T13:17:28;20.00;61.50
43808;DHT22;29438;50.664;10.098;2023-08-31T13:19:55;19.70;58.00
43808;DHT22;29438;50.664;10.098;2023-08-31T13:22:21;19.90;57.60
43808;DHT22;29438;50.664;10.098;2023-08-31T13:24:47;20.20;57.40
43808;DHT22;29438;50.664;10.098;2023-08-31T13:27:13;20.10;56.30
43808;DHT22;29438;50.664;10.098;2023-08-31T13:29:42;19.70;57.10
43808;DHT22;29438;50.664;10.098;2023-08-31T13:32:07;19.10;58.80
43808;DHT22;29438;50.664;10.098;2023-08-31T13:34:34;18.90;59.20
43808;DHT22;29438;50.664;10.098;2023-08-31T13:36:59;19.20;60.80
43808;DHT22;29438;50.664;10.098;2023-08-31T13:39:26;19.10;58.20
43808;DHT22;29438;50.664;10.098;2023-08-31T13:41:52;18.80;60.70
43808;DHT22;29438;50.664;10.098;2023-08-31T13:44:19;19.00;60.30
43808;DHT22;29438;50.664;10.098;2023-08-31T13:46:45;19.50;58.60
43808;DHT22;29438;50.664;10.098;2023-08-31T13:49:11;19.90;57.10
43808;DHT22;29438;50.664;10.098;2023-08-31T13:51:37;19.60;57.40
43808;DHT22;29438;50.664;10.098;2023-08-31T13:54:03;19.20;57.10
43808;DHT22;29438;50.664;10.098;2023-08-31T13:56:32;19.20;59.00
43808;DHT22;29438;50.664;10.098;2023-08-31T13:58:58;19.50;59.10
43808;DHT22;29438;50.664;10.098;2023-08-31T14:01:24;19.20;59.00
43808;DHT22;29438;50.664;10.098;2023-08-31T14:03:50;18.90;60.70
43808;DHT22;29438;50.664;10.098;2023-08-31T14:06:16;19.70;61.90
43808;DHT22;29438;50.664;10.098;2023-08-31T14:08:41;19.50;58.60
43808;DHT22;29438;50.664;10.098;2023-08-31T14:11:07;19.10;60.70
43808;DHT22;29438;50.664;10.098;2023-08-31T14:13:32;18.70;60.50
43808;DHT22;29438;50.664;10.098;2023-08-31T14:15:59;18.70;62.80
43808;DHT22;29438;50.664;10.098;2023-08-31T14:18:26;18.70;61.80
43808;DHT22;29438;50.664;10.098;2023-08-31T14:20:54;18.40;62.40
43808;DHT22;29438;50.664;10.098;2023-08-31T14:23:19;18.30;63.20
43808;DHT22;29438;50.664;10.098;2023-08-31T14:25:45;18.30;62.00
43808;DHT22;29438;50.664;10.098;2023-08-31T14:28:11;18.30;61.60
43808;DHT22;29438;50.664;10.098;2023-08-31T14:30:37;18.20;63.70
43808;DHT22;29438;50.664;10.098;2023-08-31T14:33:03;18.30;63.50
43808;DHT22;29438;50.664;10.098;2023-08-31T14:35:29;18.30;64.30
43808;DHT22;29438;50.664;10.098;2023-08-31T14:37:54;18.20;62.30
43808;DHT22;29438;50.664;10.098;2023-08-31T14:40:20;17.90;64.00
43808;DHT22;29438;50.664;10.098;2023-08-31T14:42:45;17.80;63.70
43808;DHT22;29438;50.664;10.098;2023-08-31T14:45:11;17.70;62.50
43808;DHT22;29438;50.664;10.098;2023-08-31T14:47:36;17.80;63.80
43808;DHT22;29438;50.664;10.098;2023-08-31T14:50:02;17.90;61.90
43808;DHT22;29438;50.664;10.098;2023-08-31T14:52:30;17.70;60.50
43808;DHT22;29438;50.664;10.098;2023-08-31T14:54:55;17.50;62.40
43808;DHT22;29438;50.664;10.098;2023-08-31T14:57:21;17.60;62.80
43808;DHT22;29438;50.664;10.098;2023-08-31T14:59:46;17.70;63.10
43808;DHT22;29438;50.664;10.098;2023-08-31T15:02:12;18.10;61.60
43808;DHT22;29438;50.664;10.098;2023-08-31T15:04:39;18.20;59.80
43808;DHT22;29438;50.664;10.098;2023-08-31T15:07:05;18.00;60.40
43808;DHT22;29438;50.664;10.098;2023-08-31T15:09:31;18.00;62.20
43808;DHT22;29438;50.664;10.098;2023-08-31T15:11:57;18.00;62.20
43808;DHT22;29438;50.664;10.098;2023-08-31T15:14:23;17.80;61.10
43808;DHT22;29438;50.664;10.098;2023-08-31T15:16:48;17.70;61.40
43808;DHT22;29438;50.664;10.098;2023-08-31T15:19:14;17.50;62.70
43808;DHT22;29438;50.664;10.098;2023-08-31T15:21:39;17.50;62.80
43808;DHT22;29438;50.664;10.098;2023-08-31T15:24:05;17.30;63.80
43808;DHT22;29438;50.664;10.098;2023-08-31T15:26:30;17.40;64.20